createdAt,value
2022-11-16T00:01:40.780Z,74.73
2022-11-16T00:04:11.972Z,74.73
2022-11-16T00:06:40.430Z,74.69
2022-11-16T00:09:27.280Z,74.67
2022-11-16T00:11:58.187Z,74.60
2022-11-16T00:14:28.826Z,74.58
2022-11-16T00:16:57.405Z,74.53
2022-11-16T00:19:26.223Z,74.56
2022-11-16T00:21:54.490Z,74.61
2022-11-16T00:24:23.633Z,74.69
2022-11-16T00:26:54.510Z,74.81
2022-11-16T00:29:25.091Z,74.73
2022-11-16T00:31:54.791Z,74.80
2022-11-16T00:34:24.000Z,74.77
2022-11-16T00:36:52.197Z,74.68
2022-11-16T00:39:20.965Z,74.71
2022-11-16T00:41:49.204Z,74.68
2022-11-16T00:44:18.435Z,74.65
2022-11-16T00:46:46.550Z,74.77
2022-11-16T00:49:14.847Z,74.73
2022-11-16T00:51:42.581Z,74.80
2022-11-16T00:54:10.301Z,74.74
2022-11-16T00:56:39.807Z,74.74
2022-11-16T00:59:07.650Z,74.74
2022-11-16T01:01:35.452Z,74.58
2022-11-16T01:04:03.376Z,74.64
2022-11-16T01:06:31.096Z,74.64
2022-11-16T01:08:58.797Z,74.70
2022-11-16T01:11:42.704Z,74.81
2022-11-16T01:14:11.289Z,74.93
2022-11-16T01:16:39.013Z,74.92
2022-11-16T01:19:07.699Z,74.88
2022-11-16T01:21:35.413Z,74.87
2022-11-16T01:24:03.188Z,74.88
2022-11-16T01:26:30.940Z,74.92
2022-11-16T01:28:59.704Z,74.97
2022-11-16T01:31:27.385Z,74.90
2022-11-16T01:33:55.121Z,74.84
2022-11-16T01:36:23.039Z,74.92
2022-11-16T01:38:50.799Z,74.96
2022-11-16T01:41:21.817Z,74.85
2022-11-16T01:43:49.455Z,74.91
2022-11-16T01:46:17.205Z,74.84
2022-11-16T01:48:46.344Z,74.75
2022-11-16T01:51:14.229Z,74.95
2022-11-16T01:53:42.230Z,74.89
2022-11-16T01:56:10.116Z,75.06
2022-11-16T01:58:38.487Z,74.91
2022-11-16T02:01:06.411Z,74.96
2022-11-16T02:03:38.008Z,74.94
2022-11-16T02:06:20.640Z,75.03
2022-11-16T02:09:10.285Z,75.06
2022-11-16T02:12:09.867Z,75.11
2022-11-16T02:15:09.403Z,75.11
2022-11-16T02:18:16.001Z,75.13
2022-11-16T02:20:58.583Z,75.18
2022-11-16T02:24:02.420Z,75.18
2022-11-16T02:26:43.911Z,75.02
2022-11-16T02:29:37.959Z,74.94
2022-11-16T02:32:12.097Z,74.98
2022-11-16T02:34:47.804Z,75.10
2022-11-16T02:37:20.614Z,75.09
2022-11-16T02:39:52.404Z,75.00
2022-11-16T02:42:29.853Z,75.05
2022-11-16T02:44:59.670Z,75.15
2022-11-16T02:47:30.994Z,74.91
2022-11-16T02:50:05.211Z,74.94
2022-11-16T02:52:32.972Z,74.96
2022-11-16T02:55:00.624Z,75.10
2022-11-16T02:57:39.752Z,75.01
2022-11-16T03:00:11.407Z,75.12
2022-11-16T03:03:10.892Z,75.06
2022-11-16T03:05:45.088Z,75.17
2022-11-16T03:08:22.984Z,75.17
2022-11-16T03:11:11.959Z,75.06
2022-11-16T03:13:40.866Z,74.98
2022-11-16T03:16:16.494Z,74.99
2022-11-16T03:18:46.019Z,75.10
2022-11-16T03:21:24.615Z,75.12
2022-11-16T03:23:52.258Z,75.19
2022-11-16T03:26:24.179Z,75.12
2022-11-16T03:28:54.712Z,75.12
2022-11-16T03:31:30.144Z,75.03
2022-11-16T03:34:02.312Z,75.03
2022-11-16T03:36:38.629Z,74.99
2022-11-16T03:39:12.578Z,75.04
2022-11-16T03:41:42.907Z,75.19
2022-11-16T03:44:14.418Z,75.19
2022-11-16T03:46:44.277Z,75.09
2022-11-16T03:49:12.406Z,75.25
2022-11-16T03:51:40.579Z,75.21
2022-11-16T03:54:08.248Z,75.08
2022-11-16T03:56:35.913Z,75.15
2022-11-16T03:59:03.514Z,75.25
2022-11-16T04:01:31.637Z,75.27
2022-11-16T04:03:59.270Z,75.15
2022-11-16T04:06:42.856Z,75.17
2022-11-16T04:09:26.801Z,75.08
2022-11-16T04:12:10.443Z,75.05
2022-11-16T04:14:54.429Z,75.11
2022-11-16T04:17:40.048Z,75.02
2022-11-16T04:20:27.251Z,75.07
2022-11-16T04:23:27.473Z,74.96
2022-11-16T04:25:55.632Z,74.84
2022-11-16T04:28:29.243Z,74.89
2022-11-16T04:31:15.939Z,74.95
2022-11-16T04:34:00.130Z,74.83
2022-11-16T04:36:44.334Z,74.94
2022-11-16T04:39:12.137Z,75.00
2022-11-16T04:41:55.744Z,74.82
2022-11-16T04:44:28.768Z,74.90
2022-11-16T04:47:12.550Z,74.97
2022-11-16T04:49:40.143Z,75.05
2022-11-16T04:52:08.929Z,74.95
2022-11-16T04:54:36.625Z,74.87
2022-11-16T04:57:04.304Z,74.89
2022-11-16T04:59:31.888Z,74.64
2022-11-16T05:02:15.628Z,74.82
2022-11-16T05:04:45.110Z,74.98
2022-11-16T05:07:14.792Z,74.87
2022-11-16T05:09:47.833Z,74.93
2022-11-16T05:12:22.043Z,74.82
2022-11-16T05:14:49.938Z,74.67
2022-11-16T05:17:18.522Z,74.71
2022-11-16T05:20:02.139Z,74.68
2022-11-16T05:22:29.876Z,74.80
2022-11-16T05:24:57.582Z,74.80
2022-11-16T05:27:26.767Z,74.78
2022-11-16T05:29:55.106Z,74.85
2022-11-16T05:32:24.109Z,74.60
2022-11-16T05:34:51.772Z,74.51
2022-11-16T05:37:21.179Z,74.70
2022-11-16T05:39:48.846Z,74.55
2022-11-16T05:42:16.477Z,74.61
2022-11-16T05:44:44.113Z,74.59
2022-11-16T05:47:11.759Z,74.55
2022-11-16T05:49:39.353Z,74.62
2022-11-16T05:52:06.964Z,74.57
2022-11-16T05:54:34.678Z,74.64
2022-11-16T05:57:02.255Z,74.60
2022-11-16T05:59:30.033Z,74.47
2022-11-16T06:01:57.865Z,74.65
2022-11-16T06:04:25.524Z,74.56
2022-11-16T06:06:53.259Z,74.61
2022-11-16T06:09:20.980Z,74.39
2022-11-16T06:11:48.609Z,74.44
2022-11-16T06:14:16.240Z,74.51
2022-11-16T06:16:43.887Z,74.47
2022-11-16T06:19:11.560Z,74.40
2022-11-16T06:21:39.150Z,74.29
2022-11-16T06:24:09.216Z,74.25
2022-11-16T06:26:37.513Z,74.33
2022-11-16T06:29:05.128Z,74.45
2022-11-16T06:31:32.716Z,74.54
2022-11-16T06:34:00.321Z,74.28
2022-11-16T06:36:28.262Z,74.24
2022-11-16T06:38:55.896Z,74.06
2022-11-16T06:41:23.473Z,73.91
2022-11-16T06:43:51.149Z,74.02
2022-11-16T06:46:18.814Z,73.73
2022-11-16T06:48:46.449Z,73.91
2022-11-16T06:51:14.271Z,74.06
2022-11-16T06:53:42.287Z,73.88
2022-11-16T06:56:13.700Z,73.88
2022-11-16T06:58:44.854Z,73.90
2022-11-16T07:01:18.085Z,74.00
2022-11-16T07:03:47.773Z,74.06
2022-11-16T07:06:19.037Z,73.73
2022-11-16T07:08:49.574Z,73.74
2022-11-16T07:11:18.271Z,73.86
2022-11-16T07:13:54.667Z,73.80
2022-11-16T07:16:22.755Z,73.60
2022-11-16T07:18:51.155Z,73.65
2022-11-16T07:21:21.198Z,73.72
2022-11-16T07:23:49.021Z,73.69
2022-11-16T07:26:18.746Z,73.79
2022-11-16T07:28:49.888Z,73.82
2022-11-16T07:31:19.090Z,73.93
2022-11-16T07:33:46.680Z,73.77
2022-11-16T07:36:17.436Z,74.14
2022-11-16T07:38:45.952Z,73.95
2022-11-16T07:41:19.274Z,73.99
2022-11-16T07:43:52.612Z,74.00
2022-11-16T07:46:45.920Z,74.15
2022-11-16T07:49:19.529Z,73.98
2022-11-16T07:51:47.317Z,73.97
2022-11-16T07:54:15.620Z,74.03
2022-11-16T07:56:43.382Z,74.09
2022-11-16T07:59:11.230Z,74.17
2022-11-16T08:01:39.018Z,74.28
2022-11-16T08:04:06.669Z,74.18
2022-11-16T08:06:34.312Z,74.07
2022-11-16T08:09:02.143Z,73.98
2022-11-16T08:11:29.953Z,74.00
2022-11-16T08:13:58.766Z,74.16
2022-11-16T08:16:27.649Z,74.40
2022-11-16T08:18:58.030Z,74.04
2022-11-16T08:21:25.653Z,73.89
2022-11-16T08:23:58.084Z,74.10
2022-11-16T08:26:27.053Z,73.85
2022-11-16T08:28:56.660Z,73.68
2022-11-16T08:31:27.616Z,73.75
2022-11-16T08:33:56.529Z,73.77
2022-11-16T08:36:24.293Z,73.97
2022-11-16T08:38:53.453Z,73.83
2022-11-16T08:41:21.893Z,73.92
2022-11-16T08:43:50.885Z,74.04
2022-11-16T08:46:18.869Z,73.87
2022-11-16T08:48:46.895Z,74.54
2022-11-16T08:51:19.572Z,74.30
2022-11-16T08:53:49.565Z,73.51
2022-11-16T08:56:18.551Z,73.85
2022-11-16T08:58:48.248Z,75.11
2022-11-16T09:01:20.305Z,74.84
2022-11-16T09:03:48.194Z,74.65
2022-11-16T09:06:19.195Z,73.52
2022-11-16T09:08:50.061Z,73.09
2022-11-16T09:11:21.963Z,72.99
2022-11-16T09:13:57.411Z,72.94
2022-11-16T09:16:28.760Z,73.01
2022-11-16T09:18:57.474Z,72.74
2022-11-16T09:21:32.680Z,72.99
2022-11-16T09:24:00.667Z,72.99
2022-11-16T09:26:28.381Z,73.10
2022-11-16T09:29:01.303Z,73.12
2022-11-16T09:31:34.572Z,73.13
2022-11-16T09:34:03.305Z,73.15
2022-11-16T09:36:31.474Z,73.34
2022-11-16T09:39:29.681Z,73.38
2022-11-16T09:42:21.877Z,73.49
2022-11-16T09:45:05.553Z,73.89
2022-11-16T09:47:49.756Z,74.79
2022-11-16T09:50:34.494Z,73.69
2022-11-16T09:53:27.196Z,73.34
2022-11-16T09:56:01.586Z,74.48
2022-11-16T09:58:48.197Z,77.73
2022-11-16T10:01:38.587Z,77.87
2022-11-16T10:04:28.387Z,75.49
2022-11-16T10:07:04.572Z,73.99
2022-11-16T10:09:32.756Z,72.44
2022-11-16T10:12:32.462Z,72.02
2022-11-16T10:15:21.708Z,71.69
2022-11-16T10:18:20.246Z,71.71
2022-11-16T10:21:19.269Z,71.73
2022-11-16T10:24:19.416Z,71.60
2022-11-16T10:27:10.569Z,71.75
2022-11-16T10:29:56.908Z,72.27
2022-11-16T10:32:49.555Z,72.10
2022-11-16T10:35:30.735Z,72.02
2022-11-16T10:38:07.871Z,72.06
2022-11-16T10:40:41.375Z,72.26
2022-11-16T10:43:18.986Z,72.30
2022-11-16T10:46:16.605Z,72.31
2022-11-16T10:49:16.418Z,72.25
2022-11-16T10:51:44.604Z,72.26
2022-11-16T10:54:16.560Z,72.27
2022-11-16T10:56:53.180Z,72.51
2022-11-16T10:59:38.957Z,72.49
2022-11-16T11:02:36.943Z,72.52
2022-11-16T11:05:16.949Z,72.23
2022-11-16T11:08:01.965Z,72.29
2022-11-16T11:10:39.532Z,72.36
2022-11-16T11:13:11.158Z,72.12
2022-11-16T11:15:40.902Z,72.14
2022-11-16T11:18:30.307Z,72.19
2022-11-16T11:21:24.116Z,72.04
2022-11-16T11:24:37.436Z,72.13
2022-11-16T11:26:57.428Z,71.94
2022-11-16T11:29:31.081Z,71.93
2022-11-16T11:32:20.749Z,71.93
2022-11-16T11:34:54.046Z,72.07
2022-11-16T11:37:33.234Z,72.18
2022-11-16T11:40:33.479Z,72.03
2022-11-16T11:43:11.792Z,71.93
2022-11-16T11:45:55.888Z,71.86
2022-11-16T11:48:29.716Z,71.89
2022-11-16T11:51:25.686Z,71.98
2022-11-16T11:54:01.254Z,71.91
2022-11-16T11:56:36.714Z,71.82
2022-11-16T11:59:12.744Z,71.73
2022-11-16T12:02:18.150Z,71.67
2022-11-16T12:05:06.211Z,71.78
2022-11-16T12:07:37.558Z,71.70
2022-11-16T12:10:30.884Z,71.71
2022-11-16T12:13:27.847Z,71.75
2022-11-16T12:16:15.700Z,71.88
2022-11-16T12:19:02.819Z,71.76
2022-11-16T12:22:06.217Z,71.60
2022-11-16T12:24:56.741Z,71.61
2022-11-16T12:27:27.380Z,71.72
2022-11-16T12:29:57.523Z,71.71
2022-11-16T12:32:57.452Z,71.77
2022-11-16T12:35:33.706Z,71.79
2022-11-16T12:38:08.748Z,71.69
2022-11-16T12:40:45.223Z,71.66
2022-11-16T12:43:21.917Z,71.54
2022-11-16T12:46:11.657Z,71.50
2022-11-16T12:49:04.825Z,71.70
2022-11-16T12:51:37.428Z,71.75
2022-11-16T12:54:36.957Z,71.88
2022-11-16T12:57:29.050Z,71.75
2022-11-16T13:00:08.275Z,71.69
2022-11-16T13:02:54.778Z,71.81
2022-11-16T13:05:54.618Z,71.64
2022-11-16T13:08:35.910Z,71.55
2022-11-16T13:11:42.310Z,71.39
2022-11-16T13:14:18.424Z,71.49
2022-11-16T13:16:47.479Z,71.49
2022-11-16T13:19:18.030Z,71.71
2022-11-16T13:21:51.914Z,71.56
2022-11-16T13:24:50.647Z,71.53
2022-11-16T13:27:27.314Z,71.22
2022-11-16T13:30:05.276Z,71.20
2022-11-16T13:32:32.936Z,71.22
2022-11-16T13:35:11.562Z,71.21
2022-11-16T13:37:39.214Z,71.22
2022-11-16T13:40:07.227Z,71.03
2022-11-16T13:43:08.114Z,70.84
2022-11-16T13:45:57.541Z,70.80
2022-11-16T13:48:45.890Z,70.73
2022-11-16T13:51:23.040Z,70.97
2022-11-16T13:56:56.784Z,70.78
2022-11-16T13:59:34.375Z,70.69
2022-11-16T14:02:23.678Z,70.79
2022-11-16T14:05:13.461Z,70.85
2022-11-16T14:07:44.964Z,70.85
2022-11-16T14:10:35.836Z,70.78
2022-11-16T14:13:04.968Z,70.95
2022-11-16T14:15:35.414Z,71.08
2022-11-16T14:18:11.871Z,70.76
2022-11-16T14:20:57.213Z,70.75
2022-11-16T14:23:24.861Z,70.90
2022-11-16T14:26:13.905Z,70.90
2022-11-16T14:29:01.224Z,70.82
2022-11-16T14:32:00.836Z,70.74
2022-11-16T14:34:46.677Z,70.93
2022-11-16T14:37:30.450Z,70.82
2022-11-16T14:40:19.094Z,70.90
2022-11-16T14:46:12.809Z,70.90
2022-11-16T14:48:45.469Z,70.92
2022-11-16T14:51:34.024Z,70.80
2022-11-16T14:54:14.619Z,70.79
2022-11-16T14:56:59.540Z,70.61
2022-11-16T14:59:29.566Z,70.84
2022-11-16T15:02:00.574Z,70.74
2022-11-16T15:04:30.260Z,70.68
2022-11-16T15:07:03.091Z,70.51
2022-11-16T15:09:39.282Z,70.61
2022-11-16T15:12:31.841Z,70.62
2022-11-16T15:15:06.547Z,70.68
2022-11-16T15:17:34.995Z,70.69
2022-11-16T15:20:20.766Z,70.81
2022-11-16T15:22:52.102Z,70.71
2022-11-16T15:25:37.758Z,70.76
2022-11-16T15:28:14.633Z,70.80
2022-11-16T15:30:46.722Z,70.79
2022-11-16T15:33:23.391Z,70.70
2022-11-16T15:35:51.129Z,70.73
2022-11-16T15:38:32.297Z,70.76
2022-11-16T15:41:02.749Z,70.62
2022-11-16T15:44:01.268Z,70.74
2022-11-16T15:46:35.310Z,70.47
2022-11-16T15:49:03.121Z,70.60
2022-11-16T15:51:33.572Z,70.68
2022-11-16T15:54:49.122Z,70.46
2022-11-16T15:57:18.696Z,70.43
2022-11-16T15:59:54.754Z,70.39
2022-11-16T16:02:27.297Z,70.43
2022-11-16T16:04:55.087Z,70.52
2022-11-16T16:07:39.767Z,70.45
2022-11-16T16:10:24.693Z,70.55
2022-11-16T16:12:54.843Z,70.65
2022-11-16T16:15:40.220Z,70.51
2022-11-16T16:18:36.746Z,70.46
2022-11-16T16:21:04.507Z,70.46
2022-11-16T16:23:32.442Z,70.39
2022-11-16T16:26:03.952Z,70.58
2022-11-16T16:28:31.517Z,70.40
2022-11-16T16:30:59.151Z,70.51
2022-11-16T16:33:28.754Z,70.36
2022-11-16T16:35:56.434Z,70.44
2022-11-16T16:38:24.000Z,70.39
2022-11-16T16:40:51.611Z,70.21
2022-11-16T16:43:19.248Z,70.39
2022-11-16T16:45:46.849Z,70.50
2022-11-16T16:48:14.717Z,70.44
2022-11-16T16:50:42.304Z,70.29
2022-11-16T16:53:14.789Z,70.33
2022-11-16T16:55:43.545Z,70.38
2022-11-16T16:58:12.539Z,70.38
2022-11-16T17:00:41.398Z,70.29
2022-11-16T17:03:09.526Z,70.36
2022-11-16T17:05:37.622Z,70.14
2022-11-16T17:08:05.574Z,70.21
2022-11-16T17:10:33.174Z,70.35
2022-11-16T17:13:03.147Z,70.15
2022-11-16T17:15:30.955Z,70.11
2022-11-16T17:17:59.871Z,70.24
2022-11-16T17:20:27.725Z,70.20
2022-11-16T17:22:55.797Z,70.10
2022-11-16T17:25:23.400Z,70.30
2022-11-16T17:27:50.948Z,70.24
2022-11-16T17:30:18.675Z,70.23
2022-11-16T17:32:46.228Z,70.33
2022-11-16T17:35:13.850Z,70.31
2022-11-16T17:37:41.491Z,70.09
2022-11-16T17:40:10.489Z,70.24
2022-11-16T17:42:38.194Z,70.26
2022-11-16T17:45:06.419Z,70.19
2022-11-16T17:47:34.100Z,70.32
2022-11-16T17:50:01.893Z,70.13
2022-11-16T17:52:29.510Z,70.05
2022-11-16T17:54:57.124Z,70.24
2022-11-16T17:57:24.685Z,70.15
2022-11-16T17:59:52.323Z,70.39
2022-11-16T18:02:19.937Z,70.16
2022-11-16T18:04:51.067Z,70.23
2022-11-16T18:07:19.370Z,70.22
2022-11-16T18:09:47.130Z,70.31
2022-11-16T18:12:14.713Z,70.21
2022-11-16T18:14:42.616Z,70.39
2022-11-16T18:17:10.477Z,70.29
2022-11-16T18:19:38.152Z,70.28
2022-11-16T18:22:05.844Z,70.27
2022-11-16T18:24:33.496Z,70.24
2022-11-16T18:27:01.087Z,70.48
2022-11-16T18:29:28.691Z,70.12
2022-11-16T18:31:56.310Z,70.23
2022-11-16T18:34:24.326Z,70.31
2022-11-16T18:36:52.274Z,70.16
2022-11-16T18:39:20.066Z,70.44
2022-11-16T18:41:54.475Z,70.23
2022-11-16T18:44:22.985Z,70.15
2022-11-16T18:46:50.691Z,70.38
2022-11-16T18:49:18.567Z,70.36
2022-11-16T18:51:46.169Z,70.15
2022-11-16T18:54:13.767Z,70.15
2022-11-16T18:56:41.363Z,70.26
2022-11-16T18:59:09.256Z,70.07
2022-11-16T19:01:36.977Z,70.15
2022-11-16T19:04:04.799Z,70.06
2022-11-16T19:06:32.476Z,70.17
2022-11-16T19:09:00.225Z,70.17
2022-11-16T19:11:28.685Z,70.28
2022-11-16T19:14:00.634Z,70.32
2022-11-16T19:16:28.334Z,70.24
2022-11-16T19:18:56.104Z,70.27
2022-11-16T19:21:24.308Z,70.32
2022-11-16T19:23:53.582Z,70.29
2022-11-16T19:26:24.590Z,70.26
2022-11-16T19:28:53.543Z,70.21
2022-11-16T19:31:27.034Z,70.08
2022-11-16T19:33:56.263Z,70.20
2022-11-16T19:36:25.285Z,70.16
2022-11-16T19:38:53.391Z,70.28
2022-11-16T19:41:22.396Z,70.07
2022-11-16T19:43:52.730Z,70.12
2022-11-16T19:46:21.415Z,70.14
2022-11-16T19:48:49.555Z,70.05
2022-11-16T19:51:20.936Z,70.08
2022-11-16T19:53:48.609Z,70.11
2022-11-16T19:56:19.072Z,70.01
2022-11-16T19:58:46.749Z,69.96
2022-11-16T20:01:17.450Z,69.96
2022-11-16T20:03:46.152Z,70.00
2022-11-16T20:06:18.110Z,69.86
2022-11-16T20:08:53.955Z,69.86
2022-11-16T20:11:23.875Z,69.95
2022-11-16T20:13:53.343Z,69.81
2022-11-16T20:16:23.407Z,69.84
2022-11-16T20:18:52.817Z,70.00
2022-11-16T20:21:37.865Z,69.95
2022-11-16T20:24:07.410Z,70.01
2022-11-16T20:26:40.037Z,69.90
2022-11-16T20:29:11.117Z,69.90
2022-11-16T20:31:42.434Z,69.73
2022-11-16T20:34:16.127Z,69.84
2022-11-16T20:36:46.435Z,69.88
2022-11-16T20:39:16.175Z,69.83
2022-11-16T20:41:44.240Z,69.98
2022-11-16T20:44:16.709Z,69.71
2022-11-16T20:46:45.313Z,69.74
2022-11-16T20:49:13.108Z,69.80
2022-11-16T20:51:40.913Z,69.82
2022-11-16T20:54:08.583Z,69.82
2022-11-16T20:56:36.254Z,69.53
2022-11-16T20:59:03.903Z,69.64
2022-11-16T21:01:32.109Z,69.76
2022-11-16T21:04:02.485Z,69.71
2022-11-16T21:06:30.451Z,69.68
2022-11-16T21:08:59.144Z,69.68
2022-11-16T21:11:29.890Z,69.63
2022-11-16T21:14:12.584Z,69.68
2022-11-16T21:16:40.628Z,69.71
2022-11-16T21:19:08.331Z,69.71
2022-11-16T21:21:37.923Z,69.50
2022-11-16T21:24:05.851Z,69.54
2022-11-16T21:26:34.255Z,69.61
2022-11-16T21:29:01.928Z,69.73
2022-11-16T21:31:36.080Z,69.52
2022-11-16T21:34:05.806Z,69.31
2022-11-16T21:36:36.073Z,69.40
2022-11-16T21:39:03.868Z,69.33
2022-11-16T21:41:31.909Z,69.50
2022-11-16T21:43:59.542Z,69.55
2022-11-16T21:46:27.681Z,69.63
2022-11-16T21:48:56.253Z,69.38
2022-11-16T21:51:27.115Z,69.55
2022-11-16T21:53:55.642Z,69.43
2022-11-16T21:56:25.782Z,69.65
2022-11-16T21:58:54.299Z,69.64
2022-11-16T22:01:23.736Z,69.39
2022-11-16T22:04:06.625Z,69.34
2022-11-16T22:06:50.339Z,69.27
2022-11-16T22:09:17.964Z,69.23
2022-11-16T22:11:45.532Z,69.39
2022-11-16T22:14:13.106Z,69.34
2022-11-16T22:16:40.671Z,69.53
2022-11-16T22:19:08.259Z,69.32
2022-11-16T22:21:35.805Z,69.20
2022-11-16T22:24:03.687Z,69.28
2022-11-16T22:26:31.720Z,69.42
2022-11-16T22:28:59.366Z,69.37
2022-11-16T22:31:27.106Z,69.30
2022-11-16T22:33:54.687Z,69.42
2022-11-16T22:36:22.302Z,69.35
2022-11-16T22:38:49.971Z,69.39
2022-11-16T22:41:17.751Z,69.40
2022-11-16T22:43:45.327Z,69.46
2022-11-16T22:46:12.908Z,69.23
2022-11-16T22:48:41.153Z,69.26
2022-11-16T22:51:18.203Z,69.33
2022-11-16T22:53:46.005Z,69.17
2022-11-16T22:56:14.175Z,69.15
2022-11-16T22:58:41.829Z,69.18
2022-11-16T23:01:10.016Z,69.17
2022-11-16T23:03:38.894Z,69.04
2022-11-16T23:06:07.346Z,69.07
2022-11-16T23:08:36.199Z,69.22
2022-11-16T23:11:27.447Z,68.89
2022-11-16T23:14:11.826Z,68.89
2022-11-16T23:16:40.659Z,69.01
2022-11-16T23:19:26.601Z,68.95
2022-11-16T23:22:10.407Z,68.99
2022-11-16T23:24:54.309Z,69.08
2022-11-16T23:27:37.984Z,69.09
2022-11-16T23:30:12.181Z,69.01
2022-11-16T23:32:41.484Z,68.99
2022-11-16T23:35:10.608Z,69.09
2022-11-16T23:37:58.358Z,68.96
2022-11-16T23:40:46.166Z,68.90
2022-11-16T23:43:29.692Z,69.02
2022-11-16T23:45:57.389Z,69.06
2022-11-16T23:48:24.992Z,69.01
2022-11-16T23:50:52.617Z,68.97
2022-11-16T23:53:20.180Z,68.84
2022-11-16T23:55:47.880Z,68.80
2022-11-16T23:58:15.552Z,68.68
